createdAt,value
2023-03-24T00:04:53.650Z,98510.84
2023-03-24T00:09:57.434Z,98510.59
2023-03-24T00:15:02.828Z,98501.97
2023-03-24T00:20:13.929Z,98489.91
2023-03-24T00:25:19.067Z,98479.22
2023-03-24T00:30:23.224Z,98470.50
2023-03-24T00:35:28.394Z,98478.06
2023-03-24T00:40:31.944Z,98461.00
2023-03-24T00:45:35.538Z,98448.47
2023-03-24T00:50:40.424Z,98443.16
2023-03-24T00:55:46.314Z,98436.94
2023-03-24T01:00:51.255Z,98420.84
2023-03-24T01:05:57.812Z,98418.88
2023-03-24T01:11:02.232Z,98420.75
2023-03-24T01:16:06.822Z,98406.31
2023-03-24T01:21:12.808Z,98402.78
2023-03-24T01:26:16.184Z,98396.03
2023-03-24T01:31:19.590Z,98407.25
2023-03-24T01:36:25.165Z,98382.59
2023-03-24T01:41:29.529Z,98379.00
2023-03-24T01:46:34.294Z,98370.28
2023-03-24T01:51:41.839Z,98368.66
2023-03-24T01:56:49.068Z,98353.94
2023-03-24T02:01:54.599Z,98358.03
2023-03-24T02:07:02.938Z,98364.97
2023-03-24T02:12:06.948Z,98368.19
2023-03-24T02:17:33.640Z,98362.56
2023-03-24T02:23:04.856Z,98367.00
2023-03-24T02:28:23.328Z,98365.66
2023-03-24T02:33:58.279Z,98357.78
2023-03-24T02:39:41.858Z,98352.28
2023-03-24T02:44:53.380Z,98339.63
2023-03-24T02:50:04.054Z,98326.53
2023-03-24T02:55:15.382Z,98324.38
2023-03-24T03:00:34.061Z,98315.41
2023-03-24T03:05:43.415Z,98309.50
2023-03-24T03:10:51.853Z,98302.88
2023-03-24T03:15:59.694Z,98302.69
2023-03-24T03:21:09.154Z,98303.16
2023-03-24T03:26:18.656Z,98306.56
2023-03-24T03:31:30.244Z,98302.91
2023-03-24T03:36:37.049Z,98286.72
2023-03-24T03:41:42.419Z,98294.38
2023-03-24T03:46:46.112Z,98287.84
2023-03-24T03:51:49.744Z,98287.69
2023-03-24T03:56:56.034Z,98282.00
2023-03-24T04:01:59.833Z,98288.16
2023-03-24T04:07:14.719Z,98278.22
2023-03-24T04:12:39.902Z,98278.59
2023-03-24T04:17:54.647Z,98271.88
2023-03-24T04:23:09.695Z,98257.16
2023-03-24T04:28:26.490Z,98254.50
2023-03-24T04:33:39.257Z,98248.56
2023-03-24T04:38:43.385Z,98238.69
2023-03-24T04:43:49.589Z,98246.03
2023-03-24T04:48:53.258Z,98247.59
2023-03-24T04:53:56.700Z,98258.44
2023-03-24T04:59:01.769Z,98255.47
2023-03-24T05:04:05.865Z,98266.59
2023-03-24T05:09:09.675Z,98250.19
2023-03-24T05:14:14.502Z,98260.63
2023-03-24T05:19:18.281Z,98259.25
2023-03-24T05:24:22.407Z,98265.19
2023-03-24T05:29:27.353Z,98265.72
2023-03-24T05:34:31.058Z,98266.19
2023-03-24T05:39:34.550Z,98279.41
2023-03-24T05:44:39.479Z,98271.84
2023-03-24T05:49:43.270Z,98246.38
2023-03-24T05:54:47.286Z,98271.06
2023-03-24T05:59:52.332Z,98258.97
2023-03-24T06:04:57.787Z,98268.22
2023-03-24T06:10:03.558Z,98275.00
2023-03-24T06:15:10.733Z,98259.03
2023-03-24T06:20:16.356Z,98273.56
2023-03-24T06:25:21.748Z,98270.47
2023-03-24T06:30:26.658Z,98270.16
2023-03-24T06:35:30.195Z,98276.22
2023-03-24T06:40:34.165Z,98266.75
2023-03-24T06:45:39.670Z,98262.38
2023-03-24T06:50:43.400Z,98263.31
2023-03-24T06:55:48.469Z,98264.25
2023-03-24T07:00:54.118Z,98263.47
2023-03-24T07:05:57.421Z,98265.50
2023-03-24T07:11:02.430Z,98239.72
2023-03-24T07:16:08.500Z,98255.69
2023-03-24T07:21:12.058Z,98262.13
2023-03-24T07:26:15.519Z,98265.72
2023-03-24T07:31:20.619Z,98270.22
2023-03-24T07:36:24.174Z,98275.34
2023-03-24T07:41:29.503Z,98272.53
2023-03-24T07:46:34.594Z,98278.53
2023-03-24T07:51:41.092Z,98277.38
2023-03-24T07:56:45.775Z,98279.88
2023-03-24T08:01:54.433Z,98283.84
2023-03-24T08:07:00.691Z,98269.41
2023-03-24T08:12:10.343Z,98272.06
2023-03-24T08:17:22.695Z,98235.31
2023-03-24T08:22:26.422Z,98244.00
2023-03-24T08:27:29.811Z,98282.81
2023-03-24T08:32:35.025Z,98280.91
2023-03-24T08:37:38.488Z,98266.44
2023-03-24T08:42:42.753Z,98281.56
2023-03-24T08:47:47.659Z,98274.56
2023-03-24T08:52:51.639Z,98277.97
2023-03-24T08:57:55.311Z,98282.94
2023-03-24T09:03:01.409Z,98294.84
2023-03-24T09:08:05.499Z,98265.97
2023-03-24T09:13:09.119Z,98292.06
2023-03-24T09:18:14.141Z,98290.22
2023-03-24T09:23:17.825Z,98286.06
2023-03-24T09:28:21.696Z,98300.25
2023-03-24T09:33:26.651Z,98293.06
2023-03-24T09:38:30.875Z,98303.25
2023-03-24T09:43:39.823Z,98302.16
2023-03-24T09:48:49.444Z,98306.06
2023-03-24T09:54:01.429Z,98316.50
2023-03-24T09:59:08.212Z,98318.66
2023-03-24T10:04:17.165Z,98314.06
2023-03-24T10:09:27.431Z,98311.78
2023-03-24T10:14:45.278Z,98328.84
2023-03-24T10:20:00.064Z,98348.91
2023-03-24T10:25:15.062Z,98331.44
2023-03-24T10:30:21.172Z,98330.13
2023-03-24T10:35:29.792Z,98345.34
2023-03-24T10:40:34.487Z,98347.75
2023-03-24T10:45:41.348Z,98336.72
2023-03-24T10:50:48.496Z,98355.03
2023-03-24T10:55:52.052Z,98370.31
2023-03-24T11:00:55.922Z,98375.63
2023-03-24T11:06:03.177Z,98367.31
2023-03-24T11:11:30.163Z,98358.53
2023-03-24T11:16:38.200Z,98374.84
2023-03-24T11:21:45.117Z,98372.38
2023-03-24T11:26:53.440Z,98375.00
2023-03-24T11:31:59.741Z,98380.06
2023-03-24T11:37:08.336Z,98374.53
2023-03-24T11:42:17.603Z,98378.34
2023-03-24T11:47:28.995Z,98381.00
2023-03-24T11:52:41.726Z,98382.94
2023-03-24T11:57:54.179Z,98375.75
2023-03-24T12:03:28.745Z,98390.31
2023-03-24T12:08:47.252Z,98392.03
2023-03-24T12:13:51.702Z,98390.19
2023-03-24T12:19:18.124Z,98409.78
2023-03-24T12:24:32.919Z,98423.72
2023-03-24T12:29:56.297Z,98431.56
2023-03-24T12:35:23.461Z,98425.69
2023-03-24T12:41:02.462Z,98428.31
2023-03-24T12:46:17.099Z,98437.41
2023-03-24T12:51:31.331Z,98438.41
2023-03-24T12:56:42.778Z,98430.28
2023-03-24T13:01:50.319Z,98430.34
2023-03-24T13:06:57.522Z,98416.59
2023-03-24T13:12:08.104Z,98426.63
2023-03-24T13:17:19.723Z,98431.00
2023-03-24T13:22:26.263Z,98417.16
2023-03-24T13:27:37.765Z,98412.31
2023-03-24T13:32:45.616Z,98427.44
2023-03-24T13:37:52.536Z,98423.00
2023-03-24T13:42:59.069Z,98446.31
2023-03-24T13:48:17.812Z,98444.44
2023-03-24T13:53:31.942Z,98446.53
2023-03-24T13:59:08.773Z,98439.44
2023-03-24T14:04:30.394Z,98459.47
2023-03-24T14:09:34.254Z,98460.31
2023-03-24T14:15:17.003Z,98466.13
2023-03-24T14:20:33.929Z,98440.06
2023-03-24T14:25:37.671Z,98467.41
2023-03-24T14:31:02.266Z,98467.66
2023-03-24T14:36:12.216Z,98475.72
2023-03-24T14:41:23.422Z,98474.78
2023-03-24T14:46:44.707Z,98469.53
2023-03-24T14:51:57.531Z,98486.25
2023-03-24T14:57:01.972Z,98496.56
2023-03-24T15:02:17.983Z,98502.03
2023-03-24T15:07:21.677Z,98514.38
2023-03-24T15:12:26.096Z,98510.69
2023-03-24T15:17:32.542Z,98516.50
2023-03-24T15:22:42.900Z,98536.56
2023-03-24T15:27:51.103Z,98534.50
2023-03-24T15:32:56.121Z,98545.63
2023-03-24T15:37:59.859Z,98551.47
2023-03-24T15:43:04.953Z,98550.25
2023-03-24T15:48:16.061Z,98554.78
2023-03-24T15:53:25.996Z,98550.06
2023-03-24T15:58:32.381Z,98558.25
2023-03-24T16:03:37.701Z,98574.34
2023-03-24T16:08:43.897Z,98564.38
2023-03-24T16:13:48.277Z,98584.97
2023-03-24T16:18:54.248Z,98598.22
2023-03-24T16:23:59.282Z,98588.09
2023-03-24T16:29:16.826Z,98606.31
2023-03-24T16:34:23.312Z,98590.88
2023-03-24T16:39:28.875Z,98616.22
2023-03-24T16:44:32.492Z,98622.84
2023-03-24T16:49:38.669Z,98636.53
2023-03-24T16:54:45.535Z,98634.88
2023-03-24T16:59:49.577Z,98633.47
2023-03-24T17:04:54.406Z,98656.00
2023-03-24T17:09:58.991Z,98649.38
2023-03-24T17:15:02.608Z,98648.28
2023-03-24T17:20:11.357Z,98650.94
2023-03-24T17:25:17.367Z,98663.50
2023-03-24T17:30:23.014Z,98595.81
2023-03-24T17:35:27.837Z,98655.63
2023-03-24T17:40:31.442Z,98662.56
2023-03-24T17:45:34.840Z,98669.38
2023-03-24T17:50:40.318Z,98672.28
2023-03-24T17:55:44.094Z,98680.41
2023-03-24T18:00:47.983Z,98684.84
2023-03-24T18:05:54.059Z,98697.22
2023-03-24T18:11:05.140Z,98690.03
2023-03-24T18:16:20.545Z,98684.56
2023-03-24T18:21:26.727Z,98687.13
2023-03-24T18:26:30.178Z,98690.94
2023-03-24T18:31:33.956Z,98687.38
2023-03-24T18:36:40.700Z,98698.34
2023-03-24T18:41:44.360Z,98705.00
2023-03-24T18:46:48.409Z,98701.09
2023-03-24T18:51:53.522Z,98710.94
2023-03-24T18:56:57.104Z,98709.44
2023-03-24T19:02:00.722Z,98715.84
2023-03-24T19:07:08.171Z,98715.59
2023-03-24T19:12:12.075Z,98717.13
2023-03-24T19:17:15.879Z,98720.38
2023-03-24T19:22:22.300Z,98717.97
2023-03-24T19:27:27.368Z,98719.47
2023-03-24T19:32:30.685Z,98716.69
2023-03-24T19:37:37.047Z,98713.44
2023-03-24T19:42:42.127Z,98706.91
2023-03-24T19:47:47.124Z,98706.41
2023-03-24T19:52:52.004Z,98710.09
2023-03-24T19:57:55.531Z,98699.69
2023-03-24T20:02:59.124Z,98708.72
2023-03-24T20:08:04.174Z,98709.84
2023-03-24T20:13:07.807Z,98687.72
2023-03-24T20:18:11.553Z,98702.25
2023-03-24T20:23:17.056Z,98694.28
2023-03-24T20:28:20.496Z,98698.78
2023-03-24T20:33:23.893Z,98691.88
2023-03-24T20:38:29.255Z,98693.94
2023-03-24T20:43:35.677Z,98707.22
2023-03-24T20:48:39.136Z,98688.91
2023-03-24T20:53:44.973Z,98690.03
2023-03-24T20:58:48.582Z,98684.09
2023-03-24T21:03:53.675Z,98670.13
2023-03-24T21:08:59.834Z,98679.03
2023-03-24T21:14:03.884Z,98680.00
2023-03-24T21:19:10.473Z,98669.59
2023-03-24T21:24:15.483Z,98661.88
2023-03-24T21:29:19.163Z,98656.56
2023-03-24T21:34:22.653Z,98653.00
2023-03-24T21:39:28.324Z,98639.09
2023-03-24T21:44:32.234Z,98647.88
2023-03-24T21:49:35.723Z,98642.63
2023-03-24T21:54:40.416Z,98626.41
2023-03-24T21:59:43.737Z,98643.81
2023-03-24T22:04:48.041Z,98645.78
2023-03-24T22:09:54.630Z,98648.25
2023-03-24T22:14:58.105Z,98649.19
2023-03-24T22:20:01.516Z,98641.38
2023-03-24T22:25:08.274Z,98640.63
2023-03-24T22:30:14.238Z,98644.16
2023-03-24T22:35:17.880Z,98651.06
2023-03-24T22:40:22.857Z,98648.25
2023-03-24T22:45:26.312Z,98656.06
2023-03-24T22:50:29.670Z,98637.75
2023-03-24T22:55:34.711Z,98622.81
2023-03-24T23:00:38.285Z,98609.88
2023-03-24T23:05:42.284Z,98624.28
2023-03-24T23:10:48.526Z,98615.75
2023-03-24T23:15:53.569Z,98612.88
2023-03-24T23:21:04.218Z,98617.22
2023-03-24T23:26:26.070Z,98622.41
2023-03-24T23:31:31.772Z,98615.25
2023-03-24T23:36:35.484Z,98603.84
2023-03-24T23:41:40.348Z,98603.16
2023-03-24T23:46:43.998Z,98592.16
2023-03-24T23:51:47.495Z,98601.28
2023-03-24T23:56:53.952Z,98601.72
